Allenstown, NH

12:43 PM EDT on September 01, 2015 (GMT -0400)
Pembroke Hill | | Change Station
CLOSE
Current Station
Personal Weather Station
Location: Pembroke, NH
Elevation: 545 ft
Nearby Weather Stations

Elev 545 ft 43.17 °N, 71.45 °W | Updated 11 seconds ago

Clear
Clear
81.1 °F
Feels Like 82 °F
N
0.0
Wind Variable Wind from NE
Gusts 0.0 mph

Today
High -- | Low -- °F
--% Chance of Precip.
Yesterday
High -- | Low -- °F
Precip. -- in
6:09 AM 7:21 PM
Waning Gibbous, 88% visible
Pressure 30.05 in
Visibility 10.0 miles
Clouds Clear
Heat Index 82 °F
Dew Point 63 °F
Humidity 54%
Rainfall 0.00 in
Snow Depth Not available.
UV 8 out of 12
Pollen 7.90 out of 12
Air Quality Not available.
Flu Activity Not available.
METAR KCON 011551Z AUTO VRB06KT 10SM CLR 27/14 A3005 RMK AO2 SLP176 T02670139
Pressure 30.05 in
Visibility 10.0 miles
Clouds Clear
Heat Index 82 °F
Dew Point 63 °F
Humidity 54%
Rainfall 0.00 in
Snow Depth Not available.
UV 8 out of 12
Pollen 7.90 out of 12
Air Quality Not available.
Flu Activity Not available.
METAR KCON 011551Z AUTO VRB06KT 10SM CLR 27/14 A3005 RMK AO2 SLP176 T02670139

10-Day Weather Forecast

×

Almanac

Astronomy

Sep. 01, 2015 Rise Set
Actual Time
Civil Twilight
Nautical Twilight
Astronomical Twilight
Moon
Length of Visible Light
Length of Day
Tomorrow will be .
, % of the Moon is Illuminated

Today's Extremes

State Highs State Lows

Community

WunderPhotos

Upload Photos

1,851,555 photos uploaded!

WunderBlogs® & News

Nearby

Air Quality

  Air Quality AQ Index Pollutant
Not available.

Snow Depth

Station Depth Elevation

Earthquake Activity

City Distance Mag. Time & Date
Minimum magnitude displayed is 2.5.

Coastal Water Temperatures

Place Temperature

Stations

Nearby Weather Stations

Station Location Temp. Windchill Dew Point Humidity Wind Precip. Elev Updated Type